sensor_id;sensor_type;location;lat;lon;timestamp;P1;durP1;ratioP1;P2;durP2;ratioP2
27517;SDS011;14962;52.482;13.142;2022-09-13T00:01:32;4.00;;;2.58;;
27517;SDS011;14962;52.482;13.142;2022-09-13T00:03:58;5.53;;;2.85;;
27517;SDS011;14962;52.482;13.142;2022-09-13T00:06:24;3.15;;;2.85;;
27517;SDS011;14962;52.482;13.142;2022-09-13T00:08:50;4.13;;;2.65;;
27517;SDS011;14962;52.482;13.142;2022-09-13T00:11:22;3.53;;;2.70;;
27517;SDS011;14962;52.482;13.142;2022-09-13T00:13:48;3.90;;;2.20;;
27517;SDS011;14962;52.482;13.142;2022-09-13T00:16:15;3.80;;;2.60;;
27517;SDS011;14962;52.482;13.142;2022-09-13T00:18:42;3.03;;;2.47;;
27517;SDS011;14962;52.482;13.142;2022-09-13T00:21:12;3.22;;;2.30;;
27517;SDS011;14962;52.482;13.142;2022-09-13T00:23:38;3.53;;;2.67;;
27517;SDS011;14962;52.482;13.142;2022-09-13T00:26:12;2.92;;;2.50;;
27517;SDS011;14962;52.482;13.142;2022-09-13T00:31:06;4.57;;;2.42;;
27517;SDS011;14962;52.482;13.142;2022-09-13T00:33:32;2.85;;;2.55;;
27517;SDS011;14962;52.482;13.142;2022-09-13T00:36:01;3.67;;;2.50;;
27517;SDS011;14962;52.482;13.142;2022-09-13T00:38:28;2.92;;;2.53;;
27517;SDS011;14962;52.482;13.142;2022-09-13T00:40:54;4.15;;;2.33;;
27517;SDS011;14962;52.482;13.142;2022-09-13T00:43:36;4.55;;;2.80;;
27517;SDS011;14962;52.482;13.142;2022-09-13T00:46:05;5.40;;;2.55;;
27517;SDS011;14962;52.482;13.142;2022-09-13T00:48:31;4.97;;;2.70;;
27517;SDS011;14962;52.482;13.142;2022-09-13T00:50:59;4.97;;;2.72;;
27517;SDS011;14962;52.482;13.142;2022-09-13T00:53:30;3.13;;;2.60;;
27517;SDS011;14962;52.482;13.142;2022-09-13T00:56:11;4.05;;;2.85;;
27517;SDS011;14962;52.482;13.142;2022-09-13T00:58:43;3.22;;;2.17;;
27517;SDS011;14962;52.482;13.142;2022-09-13T01:01:12;3.83;;;2.90;;
27517;SDS011;14962;52.482;13.142;2022-09-13T01:03:39;3.67;;;2.70;;
27517;SDS011;14962;52.482;13.142;2022-09-13T01:06:10;3.88;;;2.63;;
27517;SDS011;14962;52.482;13.142;2022-09-13T01:08:39;4.53;;;2.70;;
27517;SDS011;14962;52.482;13.142;2022-09-13T01:11:05;5.10;;;2.80;;
27517;SDS011;14962;52.482;13.142;2022-09-13T01:13:35;3.22;;;2.33;;
27517;SDS011;14962;52.482;13.142;2022-09-13T01:16:01;3.08;;;2.58;;
27517;SDS011;14962;52.482;13.142;2022-09-13T01:18:27;4.03;;;2.90;;
27517;SDS011;14962;52.482;13.142;2022-09-13T01:26:50;3.88;;;2.95;;
27517;SDS011;14962;52.482;13.142;2022-09-13T01:31:50;6.50;;;3.00;;
27517;SDS011;14962;52.482;13.142;2022-09-13T01:36:53;3.75;;;2.78;;
27517;SDS011;14962;52.482;13.142;2022-09-13T01:39:23;3.60;;;2.67;;
27517;SDS011;14962;52.482;13.142;2022-09-13T01:44:26;3.22;;;2.88;;
27517;SDS011;14962;52.482;13.142;2022-09-13T01:46:58;3.58;;;2.47;;
27517;SDS011;14962;52.482;13.142;2022-09-13T01:49:42;3.22;;;2.70;;
27517;SDS011;14962;52.482;13.142;2022-09-13T01:52:31;3.42;;;2.78;;
27517;SDS011;14962;52.482;13.142;2022-09-13T01:55:04;3.55;;;2.88;;
27517;SDS011;14962;52.482;13.142;2022-09-13T02:00:07;3.00;;;2.70;;
27517;SDS011;14962;52.482;13.142;2022-09-13T02:02:36;3.90;;;3.00;;
27517;SDS011;14962;52.482;13.142;2022-09-13T02:05:07;3.45;;;2.92;;
27517;SDS011;14962;52.482;13.142;2022-09-13T02:07:36;4.00;;;2.97;;
27517;SDS011;14962;52.482;13.142;2022-09-13T02:10:08;3.47;;;3.00;;
27517;SDS011;14962;52.482;13.142;2022-09-13T02:12:35;5.25;;;3.05;;
27517;SDS011;14962;52.482;13.142;2022-09-13T02:15:10;3.70;;;2.80;;
27517;SDS011;14962;52.482;13.142;2022-09-13T02:17:40;4.88;;;3.05;;
27517;SDS011;14962;52.482;13.142;2022-09-13T02:20:11;3.40;;;3.10;;
27517;SDS011;14962;52.482;13.142;2022-09-13T02:22:47;5.35;;;3.15;;
27517;SDS011;14962;52.482;13.142;2022-09-13T02:25:16;3.25;;;2.95;;
27517;SDS011;14962;52.482;13.142;2022-09-13T02:27:44;7.15;;;3.20;;
27517;SDS011;14962;52.482;13.142;2022-09-13T02:30:11;3.78;;;2.80;;
27517;SDS011;14962;52.482;13.142;2022-09-13T02:32:42;3.90;;;2.88;;
27517;SDS011;14962;52.482;13.142;2022-09-13T02:37:35;3.30;;;2.72;;
27517;SDS011;14962;52.482;13.142;2022-09-13T02:40:25;4.60;;;3.00;;
27517;SDS011;14962;52.482;13.142;2022-09-13T02:42:51;3.20;;;2.70;;
27517;SDS011;14962;52.482;13.142;2022-09-13T02:45:17;3.58;;;2.85;;
27517;SDS011;14962;52.482;13.142;2022-09-13T02:47:51;4.28;;;3.40;;
27517;SDS011;14962;52.482;13.142;2022-09-13T02:53:18;4.90;;;3.65;;
27517;SDS011;14962;52.482;13.142;2022-09-13T02:55:52;4.43;;;3.53;;
27517;SDS011;14962;52.482;13.142;2022-09-13T03:01:18;4.60;;;3.60;;
27517;SDS011;14962;52.482;13.142;2022-09-13T03:03:45;5.85;;;3.72;;
27517;SDS011;14962;52.482;13.142;2022-09-13T03:06:11;4.22;;;3.35;;
27517;SDS011;14962;52.482;13.142;2022-09-13T03:08:37;3.65;;;3.10;;
27517;SDS011;14962;52.482;13.142;2022-09-13T03:11:11;4.30;;;3.15;;
27517;SDS011;14962;52.482;13.142;2022-09-13T03:13:47;5.53;;;3.60;;
27517;SDS011;14962;52.482;13.142;2022-09-13T03:16:34;4.95;;;3.75;;
27517;SDS011;14962;52.482;13.142;2022-09-13T03:19:16;5.47;;;3.50;;
27517;SDS011;14962;52.482;13.142;2022-09-13T03:21:56;4.35;;;3.80;;
27517;SDS011;14962;52.482;13.142;2022-09-13T03:24:37;5.32;;;3.97;;
27517;SDS011;14962;52.482;13.142;2022-09-13T03:27:12;4.40;;;3.53;;
27517;SDS011;14962;52.482;13.142;2022-09-13T03:32:15;6.75;;;4.00;;
27517;SDS011;14962;52.482;13.142;2022-09-13T03:34:48;5.93;;;3.72;;
27517;SDS011;14962;52.482;13.142;2022-09-13T03:37:24;6.85;;;4.13;;
27517;SDS011;14962;52.482;13.142;2022-09-13T03:39:54;5.25;;;3.92;;
27517;SDS011;14962;52.482;13.142;2022-09-13T03:45:06;5.43;;;4.00;;
27517;SDS011;14962;52.482;13.142;2022-09-13T03:47:33;5.55;;;4.20;;
27517;SDS011;14962;52.482;13.142;2022-09-13T03:50:01;5.25;;;3.80;;
27517;SDS011;14962;52.482;13.142;2022-09-13T03:52:28;5.70;;;4.32;;
27517;SDS011;14962;52.482;13.142;2022-09-13T03:54:54;4.55;;;3.80;;
27517;SDS011;14962;52.482;13.142;2022-09-13T03:57:20;5.13;;;4.07;;
27517;SDS011;14962;52.482;13.142;2022-09-13T03:59:51;5.90;;;3.97;;
27517;SDS011;14962;52.482;13.142;2022-09-13T04:02:17;4.38;;;3.97;;
27517;SDS011;14962;52.482;13.142;2022-09-13T04:04:43;5.38;;;4.43;;
27517;SDS011;14962;52.482;13.142;2022-09-13T04:07:11;4.75;;;4.18;;
27517;SDS011;14962;52.482;13.142;2022-09-13T04:09:37;5.28;;;4.07;;
27517;SDS011;14962;52.482;13.142;2022-09-13T04:12:03;5.53;;;4.35;;
27517;SDS011;14962;52.482;13.142;2022-09-13T04:14:29;4.60;;;4.10;;
27517;SDS011;14962;52.482;13.142;2022-09-13T04:16:56;13.35;;;4.43;;
27517;SDS011;14962;52.482;13.142;2022-09-13T04:19:22;5.45;;;4.32;;
27517;SDS011;14962;52.482;13.142;2022-09-13T04:21:49;5.30;;;3.85;;
27517;SDS011;14962;52.482;13.142;2022-09-13T04:24:15;7.22;;;4.80;;
27517;SDS011;14962;52.482;13.142;2022-09-13T04:26:42;4.60;;;4.10;;
27517;SDS011;14962;52.482;13.142;2022-09-13T04:29:08;5.43;;;4.43;;
27517;SDS011;14962;52.482;13.142;2022-09-13T04:31:34;5.38;;;4.32;;
27517;SDS011;14962;52.482;13.142;2022-09-13T04:34:00;6.88;;;4.20;;
27517;SDS011;14962;52.482;13.142;2022-09-13T04:36:26;8.80;;;4.47;;
27517;SDS011;14962;52.482;13.142;2022-09-13T04:38:52;5.90;;;4.40;;
27517;SDS011;14962;52.482;13.142;2022-09-13T04:41:18;5.70;;;4.47;;
27517;SDS011;14962;52.482;13.142;2022-09-13T04:43:47;5.28;;;4.40;;
27517;SDS011;14962;52.482;13.142;2022-09-13T04:46:14;7.95;;;4.75;;
27517;SDS011;14962;52.482;13.142;2022-09-13T04:48:40;5.47;;;4.18;;
27517;SDS011;14962;52.482;13.142;2022-09-13T04:51:06;6.30;;;4.88;;
27517;SDS011;14962;52.482;13.142;2022-09-13T04:53:32;6.18;;;4.63;;
27517;SDS011;14962;52.482;13.142;2022-09-13T04:55:59;6.85;;;4.60;;
27517;SDS011;14962;52.482;13.142;2022-09-13T04:58:25;6.82;;;5.30;;
27517;SDS011;14962;52.482;13.142;2022-09-13T05:00:51;5.65;;;4.38;;
27517;SDS011;14962;52.482;13.142;2022-09-13T05:03:20;6.95;;;4.15;;
27517;SDS011;14962;52.482;13.142;2022-09-13T05:05:46;7.20;;;4.53;;
27517;SDS011;14962;52.482;13.142;2022-09-13T05:08:12;7.35;;;4.53;;
27517;SDS011;14962;52.482;13.142;2022-09-13T05:10:38;7.60;;;4.50;;
27517;SDS011;14962;52.482;13.142;2022-09-13T05:13:04;7.57;;;4.97;;
27517;SDS011;14962;52.482;13.142;2022-09-13T05:15:30;6.13;;;4.80;;
27517;SDS011;14962;52.482;13.142;2022-09-13T05:17:56;7.30;;;4.40;;
27517;SDS011;14962;52.482;13.142;2022-09-13T05:20:22;6.97;;;4.35;;
27517;SDS011;14962;52.482;13.142;2022-09-13T05:22:48;6.57;;;5.05;;
27517;SDS011;14962;52.482;13.142;2022-09-13T05:25:14;5.72;;;4.50;;
27517;SDS011;14962;52.482;13.142;2022-09-13T05:27:40;9.35;;;4.55;;
27517;SDS011;14962;52.482;13.142;2022-09-13T05:30:06;7.07;;;4.30;;
27517;SDS011;14962;52.482;13.142;2022-09-13T05:32:32;5.45;;;4.40;;
27517;SDS011;14962;52.482;13.142;2022-09-13T05:34:58;9.00;;;4.40;;
27517;SDS011;14962;52.482;13.142;2022-09-13T05:37:24;5.65;;;4.45;;
27517;SDS011;14962;52.482;13.142;2022-09-13T05:39:50;8.95;;;4.97;;
27517;SDS011;14962;52.482;13.142;2022-09-13T05:42:16;11.10;;;5.30;;
27517;SDS011;14962;52.482;13.142;2022-09-13T05:44:42;7.45;;;5.30;;
27517;SDS011;14962;52.482;13.142;2022-09-13T05:47:08;5.70;;;5.07;;
27517;SDS011;14962;52.482;13.142;2022-09-13T05:49:34;9.60;;;5.60;;
27517;SDS011;14962;52.482;13.142;2022-09-13T05:52:00;10.82;;;6.03;;
27517;SDS011;14962;52.482;13.142;2022-09-13T05:54:26;10.00;;;5.55;;
27517;SDS011;14962;52.482;13.142;2022-09-13T05:56:52;12.85;;;5.85;;
27517;SDS011;14962;52.482;13.142;2022-09-13T05:59:21;8.75;;;5.57;;
27517;SDS011;14962;52.482;13.142;2022-09-13T06:01:47;9.65;;;5.60;;
27517;SDS011;14962;52.482;13.142;2022-09-13T06:04:13;8.07;;;5.68;;
27517;SDS011;14962;52.482;13.142;2022-09-13T06:06:39;9.77;;;6.15;;
27517;SDS011;14962;52.482;13.142;2022-09-13T06:09:05;8.25;;;6.15;;
27517;SDS011;14962;52.482;13.142;2022-09-13T06:11:32;7.80;;;6.07;;
27517;SDS011;14962;52.482;13.142;2022-09-13T06:13:58;8.25;;;5.57;;
27517;SDS011;14962;52.482;13.142;2022-09-13T06:16:24;8.15;;;5.85;;
27517;SDS011;14962;52.482;13.142;2022-09-13T06:18:50;7.65;;;5.70;;
27517;SDS011;14962;52.482;13.142;2022-09-13T06:21:18;6.55;;;5.38;;
27517;SDS011;14962;52.482;13.142;2022-09-13T06:23:47;7.60;;;6.30;;
27517;SDS011;14962;52.482;13.142;2022-09-13T06:26:15;8.65;;;6.70;;
27517;SDS011;14962;52.482;13.142;2022-09-13T06:28:42;8.65;;;6.18;;
27517;SDS011;14962;52.482;13.142;2022-09-13T06:31:09;10.00;;;6.72;;
27517;SDS011;14962;52.482;13.142;2022-09-13T06:33:36;9.02;;;6.65;;
27517;SDS011;14962;52.482;13.142;2022-09-13T06:36:03;7.57;;;5.80;;
27517;SDS011;14962;52.482;13.142;2022-09-13T06:38:30;9.68;;;6.30;;
27517;SDS011;14962;52.482;13.142;2022-09-13T06:40:59;7.93;;;6.28;;
27517;SDS011;14962;52.482;13.142;2022-09-13T06:43:26;8.48;;;6.70;;
27517;SDS011;14962;52.482;13.142;2022-09-13T06:45:52;8.57;;;6.30;;
27517;SDS011;14962;52.482;13.142;2022-09-13T06:48:18;7.25;;;6.00;;
27517;SDS011;14962;52.482;13.142;2022-09-13T06:50:44;10.63;;;6.65;;
27517;SDS011;14962;52.482;13.142;2022-09-13T06:53:10;7.30;;;5.82;;
27517;SDS011;14962;52.482;13.142;2022-09-13T06:55:36;9.40;;;7.30;;
27517;SDS011;14962;52.482;13.142;2022-09-13T06:58:02;9.55;;;6.78;;
27517;SDS011;14962;52.482;13.142;2022-09-13T07:00:28;8.23;;;6.35;;
27517;SDS011;14962;52.482;13.142;2022-09-13T07:02:54;12.40;;;7.13;;
27517;SDS011;14962;52.482;13.142;2022-09-13T07:05:20;9.85;;;7.00;;
27517;SDS011;14962;52.482;13.142;2022-09-13T07:07:46;16.60;;;7.32;;
27517;SDS011;14962;52.482;13.142;2022-09-13T07:10:13;9.60;;;6.55;;
27517;SDS011;14962;52.482;13.142;2022-09-13T07:12:39;11.15;;;7.25;;
27517;SDS011;14962;52.482;13.142;2022-09-13T07:15:06;12.82;;;7.88;;
27517;SDS011;14962;52.482;13.142;2022-09-13T07:17:32;10.60;;;6.85;;
27517;SDS011;14962;52.482;13.142;2022-09-13T07:19:58;11.77;;;7.07;;
27517;SDS011;14962;52.482;13.142;2022-09-13T07:22:24;11.85;;;7.78;;
27517;SDS011;14962;52.482;13.142;2022-09-13T07:24:51;11.80;;;7.57;;
27517;SDS011;14962;52.482;13.142;2022-09-13T07:27:18;14.50;;;7.93;;
27517;SDS011;14962;52.482;13.142;2022-09-13T07:29:44;9.63;;;6.97;;
27517;SDS011;14962;52.482;13.142;2022-09-13T07:32:10;10.27;;;6.95;;
27517;SDS011;14962;52.482;13.142;2022-09-13T07:34:35;12.10;;;7.15;;
27517;SDS011;14962;52.482;13.142;2022-09-13T07:37:01;9.93;;;7.25;;
27517;SDS011;14962;52.482;13.142;2022-09-13T07:39:27;8.95;;;6.70;;
27517;SDS011;14962;52.482;13.142;2022-09-13T07:41:53;10.88;;;7.15;;
27517;SDS011;14962;52.482;13.142;2022-09-13T07:44:19;12.32;;;7.45;;
27517;SDS011;14962;52.482;13.142;2022-09-13T07:46:46;9.57;;;7.03;;
27517;SDS011;14962;52.482;13.142;2022-09-13T07:49:13;9.15;;;5.93;;
27517;SDS011;14962;52.482;13.142;2022-09-13T07:51:40;9.93;;;7.28;;
27517;SDS011;14962;52.482;13.142;2022-09-13T07:54:09;11.43;;;7.18;;
27517;SDS011;14962;52.482;13.142;2022-09-13T07:56:36;13.48;;;7.40;;
27517;SDS011;14962;52.482;13.142;2022-09-13T07:59:04;9.80;;;7.05;;
27517;SDS011;14962;52.482;13.142;2022-09-13T08:01:34;9.35;;;6.38;;
27517;SDS011;14962;52.482;13.142;2022-09-13T08:04:01;10.50;;;7.70;;
27517;SDS011;14962;52.482;13.142;2022-09-13T08:06:28;8.85;;;6.97;;
27517;SDS011;14962;52.482;13.142;2022-09-13T08:08:55;9.50;;;6.75;;
27517;SDS011;14962;52.482;13.142;2022-09-13T08:11:22;10.10;;;6.75;;
27517;SDS011;14962;52.482;13.142;2022-09-13T08:13:49;7.70;;;5.90;;
27517;SDS011;14962;52.482;13.142;2022-09-13T08:16:16;8.32;;;6.10;;
27517;SDS011;14962;52.482;13.142;2022-09-13T08:18:43;10.00;;;6.30;;
27517;SDS011;14962;52.482;13.142;2022-09-13T08:21:09;9.50;;;6.25;;
27517;SDS011;14962;52.482;13.142;2022-09-13T08:23:35;10.32;;;6.65;;
27517;SDS011;14962;52.482;13.142;2022-09-13T08:26:01;9.23;;;5.90;;
27517;SDS011;14962;52.482;13.142;2022-09-13T08:28:28;11.25;;;7.10;;
27517;SDS011;14962;52.482;13.142;2022-09-13T08:30:55;10.25;;;6.50;;
27517;SDS011;14962;52.482;13.142;2022-09-13T08:33:21;9.00;;;6.22;;
27517;SDS011;14962;52.482;13.142;2022-09-13T08:35:50;8.00;;;6.22;;
27517;SDS011;14962;52.482;13.142;2022-09-13T08:38:16;11.45;;;6.07;;
27517;SDS011;14962;52.482;13.142;2022-09-13T08:40:44;7.53;;;5.72;;
27517;SDS011;14962;52.482;13.142;2022-09-13T08:43:20;8.02;;;5.85;;
27517;SDS011;14962;52.482;13.142;2022-09-13T08:46:08;8.43;;;5.75;;
27517;SDS011;14962;52.482;13.142;2022-09-13T08:48:36;9.93;;;5.63;;
27517;SDS011;14962;52.482;13.142;2022-09-13T08:51:08;7.63;;;5.53;;
27517;SDS011;14962;52.482;13.142;2022-09-13T08:53:41;7.53;;;5.32;;
27517;SDS011;14962;52.482;13.142;2022-09-13T08:56:14;8.35;;;5.65;;
27517;SDS011;14962;52.482;13.142;2022-09-13T09:01:13;8.15;;;5.43;;
27517;SDS011;14962;52.482;13.142;2022-09-13T09:03:45;8.32;;;5.07;;
27517;SDS011;14962;52.482;13.142;2022-09-13T09:06:14;10.60;;;5.25;;
27517;SDS011;14962;52.482;13.142;2022-09-13T09:09:14;9.55;;;5.28;;
27517;SDS011;14962;52.482;13.142;2022-09-13T09:14:34;7.45;;;4.43;;
27517;SDS011;14962;52.482;13.142;2022-09-13T09:17:45;6.78;;;4.75;;
27517;SDS011;14962;52.482;13.142;2022-09-13T09:20:02;8.05;;;4.35;;
27517;SDS011;14962;52.482;13.142;2022-09-13T09:22:32;8.35;;;4.13;;
27517;SDS011;14962;52.482;13.142;2022-09-13T09:24:58;6.10;;;4.10;;
27517;SDS011;14962;52.482;13.142;2022-09-13T09:27:25;7.68;;;4.20;;
27517;SDS011;14962;52.482;13.142;2022-09-13T09:29:51;7.85;;;4.15;;
27517;SDS011;14962;52.482;13.142;2022-09-13T09:32:31;5.35;;;3.75;;
27517;SDS011;14962;52.482;13.142;2022-09-13T09:37:49;5.03;;;3.92;;
27517;SDS011;14962;52.482;13.142;2022-09-13T09:40:20;6.85;;;4.57;;
27517;SDS011;14962;52.482;13.142;2022-09-13T09:42:47;6.53;;;3.65;;
27517;SDS011;14962;52.482;13.142;2022-09-13T09:45:26;6.55;;;4.57;;
27517;SDS011;14962;52.482;13.142;2022-09-13T09:47:53;5.57;;;4.32;;
27517;SDS011;14962;52.482;13.142;2022-09-13T09:50:24;6.32;;;4.63;;
27517;SDS011;14962;52.482;13.142;2022-09-13T09:53:06;6.82;;;5.25;;
27517;SDS011;14962;52.482;13.142;2022-09-13T09:55:34;6.82;;;5.22;;
27517;SDS011;14962;52.482;13.142;2022-09-13T09:58:06;10.93;;;6.53;;
27517;SDS011;14962;52.482;13.142;2022-09-13T10:00:36;8.05;;;5.53;;
27517;SDS011;14962;52.482;13.142;2022-09-13T10:03:07;7.07;;;5.72;;
27517;SDS011;14962;52.482;13.142;2022-09-13T10:05:40;7.75;;;5.18;;
27517;SDS011;14962;52.482;13.142;2022-09-13T10:08:07;7.18;;;5.00;;
27517;SDS011;14962;52.482;13.142;2022-09-13T10:10:35;7.10;;;5.22;;
27517;SDS011;14962;52.482;13.142;2022-09-13T10:13:01;8.52;;;4.53;;
27517;SDS011;14962;52.482;13.142;2022-09-13T10:15:30;10.75;;;4.85;;
27517;SDS011;14962;52.482;13.142;2022-09-13T10:18:12;8.20;;;5.03;;
27517;SDS011;14962;52.482;13.142;2022-09-13T10:20:40;8.35;;;5.72;;
27517;SDS011;14962;52.482;13.142;2022-09-13T10:23:10;7.97;;;5.63;;
27517;SDS011;14962;52.482;13.142;2022-09-13T10:25:36;8.20;;;6.40;;
27517;SDS011;14962;52.482;13.142;2022-09-13T10:28:03;7.50;;;5.75;;
27517;SDS011;14962;52.482;13.142;2022-09-13T10:30:35;10.18;;;6.47;;
27517;SDS011;14962;52.482;13.142;2022-09-13T10:33:02;8.73;;;5.55;;
27517;SDS011;14962;52.482;13.142;2022-09-13T10:35:28;8.57;;;5.93;;
27517;SDS011;14962;52.482;13.142;2022-09-13T10:37:54;8.75;;;6.18;;
27517;SDS011;14962;52.482;13.142;2022-09-13T10:40:25;11.07;;;7.05;;
27517;SDS011;14962;52.482;13.142;2022-09-13T10:42:56;15.00;;;5.65;;
27517;SDS011;14962;52.482;13.142;2022-09-13T10:45:26;9.68;;;6.32;;
27517;SDS011;14962;52.482;13.142;2022-09-13T10:47:54;7.85;;;5.32;;
27517;SDS011;14962;52.482;13.142;2022-09-13T10:50:21;8.32;;;5.75;;
27517;SDS011;14962;52.482;13.142;2022-09-13T10:52:54;9.75;;;5.75;;
27517;SDS011;14962;52.482;13.142;2022-09-13T10:55:25;6.43;;;4.55;;
27517;SDS011;14962;52.482;13.142;2022-09-13T10:57:52;8.35;;;5.53;;
27517;SDS011;14962;52.482;13.142;2022-09-13T11:00:20;8.68;;;5.40;;
27517;SDS011;14962;52.482;13.142;2022-09-13T11:08:09;11.45;;;5.80;;
27517;SDS011;14962;52.482;13.142;2022-09-13T11:15:38;10.23;;;5.28;;
27517;SDS011;14962;52.482;13.142;2022-09-13T11:20:56;11.05;;;5.97;;
27517;SDS011;14962;52.482;13.142;2022-09-13T11:23:28;9.63;;;6.40;;
27517;SDS011;14962;52.482;13.142;2022-09-13T11:28:50;9.27;;;6.57;;
27517;SDS011;14962;52.482;13.142;2022-09-13T11:31:23;12.95;;;7.60;;
27517;SDS011;14962;52.482;13.142;2022-09-13T11:36:24;11.23;;;7.15;;
27517;SDS011;14962;52.482;13.142;2022-09-13T11:38:55;11.45;;;7.38;;
27517;SDS011;14962;52.482;13.142;2022-09-13T11:41:33;10.88;;;6.82;;
27517;SDS011;14962;52.482;13.142;2022-09-13T11:44:20;9.48;;;6.43;;
27517;SDS011;14962;52.482;13.142;2022-09-13T11:46:50;10.88;;;7.03;;
27517;SDS011;14962;52.482;13.142;2022-09-13T11:54:17;11.10;;;5.80;;
27517;SDS011;14962;52.482;13.142;2022-09-13T11:56:49;13.38;;;6.72;;
27517;SDS011;14962;52.482;13.142;2022-09-13T11:59:32;10.60;;;6.00;;
27517;SDS011;14962;52.482;13.142;2022-09-13T12:02:03;10.18;;;6.45;;
27517;SDS011;14962;52.482;13.142;2022-09-13T12:04:32;9.35;;;6.15;;
27517;SDS011;14962;52.482;13.142;2022-09-13T12:07:00;8.50;;;5.55;;
27517;SDS011;14962;52.482;13.142;2022-09-13T12:09:28;11.13;;;7.28;;
27517;SDS011;14962;52.482;13.142;2022-09-13T12:12:03;9.00;;;5.78;;
27517;SDS011;14962;52.482;13.142;2022-09-13T12:14:31;9.38;;;5.90;;
27517;SDS011;14962;52.482;13.142;2022-09-13T12:17:05;11.40;;;6.22;;
27517;SDS011;14962;52.482;13.142;2022-09-13T12:19:40;9.93;;;6.35;;
27517;SDS011;14962;52.482;13.142;2022-09-13T12:22:07;8.18;;;5.47;;
27517;SDS011;14962;52.482;13.142;2022-09-13T12:24:40;9.50;;;6.22;;
27517;SDS011;14962;52.482;13.142;2022-09-13T12:29:55;10.57;;;6.78;;
27517;SDS011;14962;52.482;13.142;2022-09-13T12:32:22;10.55;;;7.30;;
27517;SDS011;14962;52.482;13.142;2022-09-13T12:34:59;12.20;;;7.53;;
27517;SDS011;14962;52.482;13.142;2022-09-13T12:37:31;10.52;;;6.45;;
27517;SDS011;14962;52.482;13.142;2022-09-13T12:40:08;12.93;;;6.90;;
27517;SDS011;14962;52.482;13.142;2022-09-13T12:45:45;12.80;;;7.35;;
27517;SDS011;14962;52.482;13.142;2022-09-13T12:50:43;10.63;;;6.78;;
27517;SDS011;14962;52.482;13.142;2022-09-13T12:56:09;12.70;;;6.47;;
27517;SDS011;14962;52.482;13.142;2022-09-13T13:01:23;9.18;;;6.47;;
27517;SDS011;14962;52.482;13.142;2022-09-13T13:03:54;10.07;;;6.25;;
27517;SDS011;14962;52.482;13.142;2022-09-13T13:06:29;10.85;;;6.57;;
27517;SDS011;14962;52.482;13.142;2022-09-13T13:08:58;10.43;;;6.63;;
27517;SDS011;14962;52.482;13.142;2022-09-13T13:11:26;9.52;;;6.78;;
27517;SDS011;14962;52.482;13.142;2022-09-13T13:13:57;10.55;;;6.28;;
27517;SDS011;14962;52.482;13.142;2022-09-13T13:18:51;9.45;;;6.03;;
27517;SDS011;14962;52.482;13.142;2022-09-13T13:21:32;8.85;;;6.30;;
27517;SDS011;14962;52.482;13.142;2022-09-13T13:29:13;7.18;;;5.40;;
27517;SDS011;14962;52.482;13.142;2022-09-13T13:31:43;9.95;;;5.25;;
27517;SDS011;14962;52.482;13.142;2022-09-13T13:47:40;6.57;;;4.03;;
27517;SDS011;14962;52.482;13.142;2022-09-13T13:52:31;8.25;;;4.47;;
27517;SDS011;14962;52.482;13.142;2022-09-13T13:55:01;4.95;;;3.40;;
27517;SDS011;14962;52.482;13.142;2022-09-13T14:02:32;5.10;;;3.75;;
27517;SDS011;14962;52.482;13.142;2022-09-13T14:10:26;7.32;;;4.97;;
27517;SDS011;14962;52.482;13.142;2022-09-13T14:12:57;6.75;;;4.22;;
27517;SDS011;14962;52.482;13.142;2022-09-13T14:15:36;7.43;;;4.78;;
27517;SDS011;14962;52.482;13.142;2022-09-13T14:20:31;7.22;;;4.88;;
27517;SDS011;14962;52.482;13.142;2022-09-13T14:23:16;7.38;;;5.03;;
27517;SDS011;14962;52.482;13.142;2022-09-13T14:25:43;7.60;;;5.00;;
27517;SDS011;14962;52.482;13.142;2022-09-13T14:28:11;8.63;;;5.90;;
27517;SDS011;14962;52.482;13.142;2022-09-13T14:30:39;8.77;;;5.70;;
27517;SDS011;14962;52.482;13.142;2022-09-13T14:33:05;6.32;;;5.18;;
27517;SDS011;14962;52.482;13.142;2022-09-13T14:35:33;8.25;;;5.43;;
27517;SDS011;14962;52.482;13.142;2022-09-13T14:38:17;7.63;;;5.25;;
27517;SDS011;14962;52.482;13.142;2022-09-13T14:40:47;9.32;;;7.07;;
27517;SDS011;14962;52.482;13.142;2022-09-13T14:43:14;9.75;;;6.90;;
27517;SDS011;14962;52.482;13.142;2022-09-13T14:45:41;9.30;;;6.20;;
27517;SDS011;14962;52.482;13.142;2022-09-13T14:48:14;9.93;;;7.18;;
27517;SDS011;14962;52.482;13.142;2022-09-13T14:50:51;17.45;;;7.13;;
27517;SDS011;14962;52.482;13.142;2022-09-13T14:53:19;12.18;;;6.03;;
27517;SDS011;14962;52.482;13.142;2022-09-13T14:55:50;8.52;;;6.55;;
27517;SDS011;14962;52.482;13.142;2022-09-13T14:58:25;8.13;;;6.63;;
27517;SDS011;14962;52.482;13.142;2022-09-13T15:00:56;8.10;;;5.88;;
27517;SDS011;14962;52.482;13.142;2022-09-13T15:03:23;11.15;;;7.38;;
27517;SDS011;14962;52.482;13.142;2022-09-13T15:05:50;9.00;;;5.57;;
27517;SDS011;14962;52.482;13.142;2022-09-13T15:11:05;8.55;;;4.85;;
27517;SDS011;14962;52.482;13.142;2022-09-13T15:13:32;6.38;;;4.57;;
27517;SDS011;14962;52.482;13.142;2022-09-13T15:15:58;6.93;;;4.00;;
27517;SDS011;14962;52.482;13.142;2022-09-13T15:18:28;6.00;;;3.63;;
27517;SDS011;14962;52.482;13.142;2022-09-13T15:20:59;5.43;;;3.70;;
27517;SDS011;14962;52.482;13.142;2022-09-13T15:28:26;5.50;;;3.40;;
27517;SDS011;14962;52.482;13.142;2022-09-13T15:30:53;5.78;;;3.50;;
27517;SDS011;14962;52.482;13.142;2022-09-13T15:33:24;5.20;;;3.75;;
27517;SDS011;14962;52.482;13.142;2022-09-13T15:35:50;9.85;;;3.70;;
27517;SDS011;14962;52.482;13.142;2022-09-13T15:38:30;3.95;;;3.47;;
27517;SDS011;14962;52.482;13.142;2022-09-13T15:41:01;4.70;;;3.33;;
27517;SDS011;14962;52.482;13.142;2022-09-13T15:43:28;4.38;;;3.17;;
27517;SDS011;14962;52.482;13.142;2022-09-13T15:45:55;4.00;;;3.15;;
27517;SDS011;14962;52.482;13.142;2022-09-13T15:48:23;5.78;;;3.35;;
27517;SDS011;14962;52.482;13.142;2022-09-13T15:51:02;6.50;;;3.50;;
27517;SDS011;14962;52.482;13.142;2022-09-13T15:53:28;6.88;;;3.63;;
27517;SDS011;14962;52.482;13.142;2022-09-13T15:55:54;5.07;;;3.75;;
27517;SDS011;14962;52.482;13.142;2022-09-13T15:58:20;5.10;;;3.63;;
27517;SDS011;14962;52.482;13.142;2022-09-13T16:00:46;9.75;;;3.70;;
27517;SDS011;14962;52.482;13.142;2022-09-13T16:03:12;5.30;;;3.38;;
27517;SDS011;14962;52.482;13.142;2022-09-13T16:05:38;4.40;;;3.38;;
27517;SDS011;14962;52.482;13.142;2022-09-13T16:08:04;5.78;;;3.10;;
27517;SDS011;14962;52.482;13.142;2022-09-13T16:10:30;8.15;;;3.40;;
27517;SDS011;14962;52.482;13.142;2022-09-13T16:12:56;4.57;;;3.53;;
27517;SDS011;14962;52.482;13.142;2022-09-13T16:15:22;7.15;;;3.65;;
27517;SDS011;14962;52.482;13.142;2022-09-13T16:17:48;5.00;;;3.45;;
27517;SDS011;14962;52.482;13.142;2022-09-13T16:20:14;4.78;;;3.00;;
27517;SDS011;14962;52.482;13.142;2022-09-13T16:22:41;3.97;;;3.22;;
27517;SDS011;14962;52.482;13.142;2022-09-13T16:25:08;4.70;;;2.83;;
27517;SDS011;14962;52.482;13.142;2022-09-13T16:27:34;3.90;;;2.92;;
27517;SDS011;14962;52.482;13.142;2022-09-13T16:30:00;6.35;;;3.83;;
27517;SDS011;14962;52.482;13.142;2022-09-13T16:32:26;4.38;;;3.13;;
27517;SDS011;14962;52.482;13.142;2022-09-13T16:34:52;5.28;;;3.17;;
27517;SDS011;14962;52.482;13.142;2022-09-13T16:37:18;5.07;;;3.22;;
27517;SDS011;14962;52.482;13.142;2022-09-13T16:39:45;3.83;;;3.00;;
27517;SDS011;14962;52.482;13.142;2022-09-13T16:42:11;5.35;;;3.00;;
27517;SDS011;14962;52.482;13.142;2022-09-13T16:44:37;6.70;;;2.80;;
27517;SDS011;14962;52.482;13.142;2022-09-13T16:47:03;3.88;;;3.20;;